sensor_id;sensor_type;location;lat;lon;timestamp;P1;durP1;ratioP1;P2;durP2;ratioP2
20810;SDS011;10566;52.928;10.522;2022-11-14T00:01:08;74.50;;;34.90;;
20810;SDS011;10566;52.928;10.522;2022-11-14T00:03:34;80.43;;;37.37;;
20810;SDS011;10566;52.928;10.522;2022-11-14T00:06:03;77.73;;;35.23;;
20810;SDS011;10566;52.928;10.522;2022-11-14T00:08:29;75.50;;;35.50;;
20810;SDS011;10566;52.928;10.522;2022-11-14T00:10:55;76.00;;;34.73;;
20810;SDS011;10566;52.928;10.522;2022-11-14T00:13:21;77.73;;;35.90;;
20810;SDS011;10566;52.928;10.522;2022-11-14T00:15:47;76.13;;;35.03;;
20810;SDS011;10566;52.928;10.522;2022-11-14T00:18:23;73.03;;;33.07;;
20810;SDS011;10566;52.928;10.522;2022-11-14T00:20:49;75.60;;;36.33;;
20810;SDS011;10566;52.928;10.522;2022-11-14T00:23:16;77.07;;;34.90;;
20810;SDS011;10566;52.928;10.522;2022-11-14T00:25:42;76.33;;;35.20;;
20810;SDS011;10566;52.928;10.522;2022-11-14T00:28:09;81.67;;;35.77;;
20810;SDS011;10566;52.928;10.522;2022-11-14T00:30:35;78.47;;;37.40;;
20810;SDS011;10566;52.928;10.522;2022-11-14T00:33:01;77.03;;;34.13;;
20810;SDS011;10566;52.928;10.522;2022-11-14T00:35:27;78.87;;;35.27;;
20810;SDS011;10566;52.928;10.522;2022-11-14T00:37:53;77.53;;;35.30;;
20810;SDS011;10566;52.928;10.522;2022-11-14T00:40:19;79.13;;;35.97;;
20810;SDS011;10566;52.928;10.522;2022-11-14T00:42:45;77.83;;;34.93;;
20810;SDS011;10566;52.928;10.522;2022-11-14T00:45:11;81.57;;;37.93;;
20810;SDS011;10566;52.928;10.522;2022-11-14T00:47:37;72.67;;;31.30;;
20810;SDS011;10566;52.928;10.522;2022-11-14T00:50:03;81.70;;;36.03;;
20810;SDS011;10566;52.928;10.522;2022-11-14T00:52:29;83.93;;;37.40;;
20810;SDS011;10566;52.928;10.522;2022-11-14T00:54:55;78.03;;;35.63;;
20810;SDS011;10566;52.928;10.522;2022-11-14T00:57:21;78.93;;;35.23;;
20810;SDS011;10566;52.928;10.522;2022-11-14T00:59:47;74.60;;;32.73;;
20810;SDS011;10566;52.928;10.522;2022-11-14T01:02:14;81.23;;;34.77;;
20810;SDS011;10566;52.928;10.522;2022-11-14T01:04:40;84.70;;;36.07;;
20810;SDS011;10566;52.928;10.522;2022-11-14T01:07:06;82.70;;;37.97;;
20810;SDS011;10566;52.928;10.522;2022-11-14T01:09:32;83.27;;;35.50;;
20810;SDS011;10566;52.928;10.522;2022-11-14T01:11:58;80.83;;;37.07;;
20810;SDS011;10566;52.928;10.522;2022-11-14T01:14:24;81.80;;;36.63;;
20810;SDS011;10566;52.928;10.522;2022-11-14T01:16:50;85.17;;;38.70;;
20810;SDS011;10566;52.928;10.522;2022-11-14T01:19:16;87.17;;;38.20;;
20810;SDS011;10566;52.928;10.522;2022-11-14T01:21:42;88.77;;;36.70;;
20810;SDS011;10566;52.928;10.522;2022-11-14T01:24:08;85.07;;;37.80;;
20810;SDS011;10566;52.928;10.522;2022-11-14T01:26:34;86.70;;;38.57;;
20810;SDS011;10566;52.928;10.522;2022-11-14T01:29:00;81.07;;;35.60;;
20810;SDS011;10566;52.928;10.522;2022-11-14T01:31:26;88.40;;;38.10;;
20810;SDS011;10566;52.928;10.522;2022-11-14T01:33:52;82.90;;;35.40;;
20810;SDS011;10566;52.928;10.522;2022-11-14T01:36:19;84.63;;;36.73;;
20810;SDS011;10566;52.928;10.522;2022-11-14T01:38:46;88.73;;;38.37;;
20810;SDS011;10566;52.928;10.522;2022-11-14T01:41:12;84.30;;;35.47;;
20810;SDS011;10566;52.928;10.522;2022-11-14T01:43:39;81.13;;;37.57;;
20810;SDS011;10566;52.928;10.522;2022-11-14T01:46:07;85.57;;;37.53;;
20810;SDS011;10566;52.928;10.522;2022-11-14T01:51:11;84.70;;;37.63;;
20810;SDS011;10566;52.928;10.522;2022-11-14T01:53:39;82.30;;;34.73;;
20810;SDS011;10566;52.928;10.522;2022-11-14T01:56:06;88.37;;;38.43;;
20810;SDS011;10566;52.928;10.522;2022-11-14T01:58:34;83.83;;;38.40;;
20810;SDS011;10566;52.928;10.522;2022-11-14T02:01:01;83.73;;;36.20;;
20810;SDS011;10566;52.928;10.522;2022-11-14T02:03:28;85.57;;;37.57;;
20810;SDS011;10566;52.928;10.522;2022-11-14T02:05:54;89.73;;;38.20;;
20810;SDS011;10566;52.928;10.522;2022-11-14T02:08:21;90.67;;;38.30;;
20810;SDS011;10566;52.928;10.522;2022-11-14T02:10:48;83.60;;;37.17;;
20810;SDS011;10566;52.928;10.522;2022-11-14T02:13:14;86.30;;;36.27;;
20810;SDS011;10566;52.928;10.522;2022-11-14T02:15:41;86.70;;;37.60;;
20810;SDS011;10566;52.928;10.522;2022-11-14T02:18:07;82.60;;;36.93;;
20810;SDS011;10566;52.928;10.522;2022-11-14T02:20:35;81.83;;;37.67;;
20810;SDS011;10566;52.928;10.522;2022-11-14T02:23:01;86.63;;;38.57;;
20810;SDS011;10566;52.928;10.522;2022-11-14T02:25:27;77.50;;;34.77;;
20810;SDS011;10566;52.928;10.522;2022-11-14T02:27:53;93.87;;;40.37;;
20810;SDS011;10566;52.928;10.522;2022-11-14T02:30:21;87.13;;;37.57;;
20810;SDS011;10566;52.928;10.522;2022-11-14T02:32:47;86.17;;;38.73;;
20810;SDS011;10566;52.928;10.522;2022-11-14T02:35:13;87.13;;;39.17;;
20810;SDS011;10566;52.928;10.522;2022-11-14T02:37:40;85.67;;;38.57;;
20810;SDS011;10566;52.928;10.522;2022-11-14T02:40:06;85.50;;;38.03;;
20810;SDS011;10566;52.928;10.522;2022-11-14T02:42:32;87.70;;;39.03;;
20810;SDS011;10566;52.928;10.522;2022-11-14T02:44:58;83.30;;;36.27;;
20810;SDS011;10566;52.928;10.522;2022-11-14T02:47:24;88.50;;;38.60;;
20810;SDS011;10566;52.928;10.522;2022-11-14T02:49:51;87.10;;;38.70;;
20810;SDS011;10566;52.928;10.522;2022-11-14T02:52:17;89.93;;;40.43;;
20810;SDS011;10566;52.928;10.522;2022-11-14T02:54:43;83.50;;;39.07;;
20810;SDS011;10566;52.928;10.522;2022-11-14T02:57:09;84.53;;;38.03;;
20810;SDS011;10566;52.928;10.522;2022-11-14T02:59:35;81.10;;;35.70;;
20810;SDS011;10566;52.928;10.522;2022-11-14T03:02:01;86.03;;;38.13;;
20810;SDS011;10566;52.928;10.522;2022-11-14T03:04:27;79.77;;;37.33;;
20810;SDS011;10566;52.928;10.522;2022-11-14T03:06:53;82.30;;;38.30;;
20810;SDS011;10566;52.928;10.522;2022-11-14T03:09:19;81.97;;;37.87;;
20810;SDS011;10566;52.928;10.522;2022-11-14T03:11:45;86.33;;;39.03;;
20810;SDS011;10566;52.928;10.522;2022-11-14T03:14:11;87.10;;;39.30;;
20810;SDS011;10566;52.928;10.522;2022-11-14T03:16:37;81.17;;;38.30;;
20810;SDS011;10566;52.928;10.522;2022-11-14T03:19:03;88.90;;;40.30;;
20810;SDS011;10566;52.928;10.522;2022-11-14T03:21:30;83.07;;;38.83;;
20810;SDS011;10566;52.928;10.522;2022-11-14T03:23:56;89.80;;;41.20;;
20810;SDS011;10566;52.928;10.522;2022-11-14T03:26:22;85.50;;;37.07;;
20810;SDS011;10566;52.928;10.522;2022-11-14T03:28:48;87.03;;;39.30;;
20810;SDS011;10566;52.928;10.522;2022-11-14T03:31:14;86.87;;;40.93;;
20810;SDS011;10566;52.928;10.522;2022-11-14T03:33:40;84.97;;;38.60;;
20810;SDS011;10566;52.928;10.522;2022-11-14T03:36:07;84.63;;;38.90;;
20810;SDS011;10566;52.928;10.522;2022-11-14T03:38:33;85.13;;;39.03;;
20810;SDS011;10566;52.928;10.522;2022-11-14T03:40:59;87.33;;;39.87;;
20810;SDS011;10566;52.928;10.522;2022-11-14T03:43:28;84.83;;;38.20;;
20810;SDS011;10566;52.928;10.522;2022-11-14T03:45:56;81.57;;;38.03;;
20810;SDS011;10566;52.928;10.522;2022-11-14T03:48:22;77.30;;;33.93;;
20810;SDS011;10566;52.928;10.522;2022-11-14T03:50:48;72.03;;;32.17;;
20810;SDS011;10566;52.928;10.522;2022-11-14T03:53:14;84.30;;;38.90;;
20810;SDS011;10566;52.928;10.522;2022-11-14T03:55:42;88.30;;;38.67;;
20810;SDS011;10566;52.928;10.522;2022-11-14T03:58:08;85.97;;;37.87;;
20810;SDS011;10566;52.928;10.522;2022-11-14T04:00:34;80.43;;;38.17;;
20810;SDS011;10566;52.928;10.522;2022-11-14T04:03:00;91.47;;;39.70;;
20810;SDS011;10566;52.928;10.522;2022-11-14T04:05:26;86.77;;;38.60;;
20810;SDS011;10566;52.928;10.522;2022-11-14T04:07:52;91.63;;;40.93;;
20810;SDS011;10566;52.928;10.522;2022-11-14T04:10:18;84.07;;;39.67;;
20810;SDS011;10566;52.928;10.522;2022-11-14T04:12:50;85.13;;;36.33;;
20810;SDS011;10566;52.928;10.522;2022-11-14T04:15:17;89.80;;;39.30;;
20810;SDS011;10566;52.928;10.522;2022-11-14T04:17:43;87.60;;;39.47;;
20810;SDS011;10566;52.928;10.522;2022-11-14T04:20:10;88.33;;;39.93;;
20810;SDS011;10566;52.928;10.522;2022-11-14T04:22:36;89.93;;;39.43;;
20810;SDS011;10566;52.928;10.522;2022-11-14T04:25:02;87.20;;;40.67;;
20810;SDS011;10566;52.928;10.522;2022-11-14T04:27:28;91.23;;;39.33;;
20810;SDS011;10566;52.928;10.522;2022-11-14T04:29:54;85.43;;;37.30;;
20810;SDS011;10566;52.928;10.522;2022-11-14T04:32:20;86.47;;;39.50;;
20810;SDS011;10566;52.928;10.522;2022-11-14T04:34:46;84.43;;;39.87;;
20810;SDS011;10566;52.928;10.522;2022-11-14T04:37:12;82.20;;;36.60;;
20810;SDS011;10566;52.928;10.522;2022-11-14T04:39:38;84.10;;;39.07;;
20810;SDS011;10566;52.928;10.522;2022-11-14T04:42:05;80.10;;;33.77;;
20810;SDS011;10566;52.928;10.522;2022-11-14T04:44:31;93.00;;;43.30;;
20810;SDS011;10566;52.928;10.522;2022-11-14T04:46:57;92.17;;;41.10;;
20810;SDS011;10566;52.928;10.522;2022-11-14T04:49:23;91.63;;;39.97;;
20810;SDS011;10566;52.928;10.522;2022-11-14T04:51:49;96.17;;;44.13;;
20810;SDS011;10566;52.928;10.522;2022-11-14T04:54:15;109.07;;;52.33;;
20810;SDS011;10566;52.928;10.522;2022-11-14T04:56:41;90.37;;;39.20;;
20810;SDS011;10566;52.928;10.522;2022-11-14T04:59:07;93.90;;;40.10;;
20810;SDS011;10566;52.928;10.522;2022-11-14T05:01:33;84.80;;;37.60;;
20810;SDS011;10566;52.928;10.522;2022-11-14T05:03:59;96.20;;;43.23;;
20810;SDS011;10566;52.928;10.522;2022-11-14T05:06:25;100.47;;;45.87;;
20810;SDS011;10566;52.928;10.522;2022-11-14T05:08:51;90.20;;;38.27;;
20810;SDS011;10566;52.928;10.522;2022-11-14T05:11:18;87.73;;;39.87;;
20810;SDS011;10566;52.928;10.522;2022-11-14T05:13:44;85.73;;;37.80;;
20810;SDS011;10566;52.928;10.522;2022-11-14T05:16:10;87.37;;;39.00;;
20810;SDS011;10566;52.928;10.522;2022-11-14T05:18:37;85.80;;;35.60;;
20810;SDS011;10566;52.928;10.522;2022-11-14T05:21:03;79.40;;;32.90;;
20810;SDS011;10566;52.928;10.522;2022-11-14T05:23:29;86.63;;;39.47;;
20810;SDS011;10566;52.928;10.522;2022-11-14T05:26:03;97.77;;;39.13;;
20810;SDS011;10566;52.928;10.522;2022-11-14T05:28:29;94.30;;;38.67;;
20810;SDS011;10566;52.928;10.522;2022-11-14T05:31:03;96.43;;;39.13;;
20810;SDS011;10566;52.928;10.522;2022-11-14T05:33:30;91.47;;;38.60;;
20810;SDS011;10566;52.928;10.522;2022-11-14T05:36:00;97.53;;;37.50;;
20810;SDS011;10566;52.928;10.522;2022-11-14T05:38:26;96.77;;;39.03;;
20810;SDS011;10566;52.928;10.522;2022-11-14T05:40:52;94.83;;;38.90;;
20810;SDS011;10566;52.928;10.522;2022-11-14T05:43:18;100.33;;;39.93;;
20810;SDS011;10566;52.928;10.522;2022-11-14T05:45:44;92.33;;;38.70;;
20810;SDS011;10566;52.928;10.522;2022-11-14T05:48:10;99.17;;;40.97;;
20810;SDS011;10566;52.928;10.522;2022-11-14T05:50:36;110.10;;;45.60;;
20810;SDS011;10566;52.928;10.522;2022-11-14T05:53:03;99.77;;;41.50;;
20810;SDS011;10566;52.928;10.522;2022-11-14T05:55:29;95.13;;;38.83;;
20810;SDS011;10566;52.928;10.522;2022-11-14T05:57:58;97.87;;;39.50;;
20810;SDS011;10566;52.928;10.522;2022-11-14T06:00:25;98.20;;;40.20;;
20810;SDS011;10566;52.928;10.522;2022-11-14T06:02:52;98.00;;;38.37;;
20810;SDS011;10566;52.928;10.522;2022-11-14T06:05:18;98.07;;;40.87;;
20810;SDS011;10566;52.928;10.522;2022-11-14T06:07:44;99.43;;;39.43;;
20810;SDS011;10566;52.928;10.522;2022-11-14T06:10:10;102.30;;;40.63;;
20810;SDS011;10566;52.928;10.522;2022-11-14T06:12:37;101.97;;;41.50;;
20810;SDS011;10566;52.928;10.522;2022-11-14T06:15:03;97.37;;;40.67;;
20810;SDS011;10566;52.928;10.522;2022-11-14T06:17:30;99.00;;;40.13;;
20810;SDS011;10566;52.928;10.522;2022-11-14T06:19:56;102.57;;;39.87;;
20810;SDS011;10566;52.928;10.522;2022-11-14T06:22:22;101.77;;;41.47;;
20810;SDS011;10566;52.928;10.522;2022-11-14T06:24:48;98.07;;;40.93;;
20810;SDS011;10566;52.928;10.522;2022-11-14T06:27:14;99.20;;;40.57;;
20810;SDS011;10566;52.928;10.522;2022-11-14T06:29:40;104.97;;;41.47;;
20810;SDS011;10566;52.928;10.522;2022-11-14T06:32:06;112.20;;;42.50;;
20810;SDS011;10566;52.928;10.522;2022-11-14T06:34:32;100.47;;;40.87;;
20810;SDS011;10566;52.928;10.522;2022-11-14T06:36:58;92.53;;;36.77;;
20810;SDS011;10566;52.928;10.522;2022-11-14T06:39:24;98.40;;;38.97;;
20810;SDS011;10566;52.928;10.522;2022-11-14T06:41:50;98.83;;;39.00;;
20810;SDS011;10566;52.928;10.522;2022-11-14T06:44:16;96.90;;;39.23;;
20810;SDS011;10566;52.928;10.522;2022-11-14T06:46:42;92.93;;;38.40;;
20810;SDS011;10566;52.928;10.522;2022-11-14T06:49:08;94.53;;;38.83;;
20810;SDS011;10566;52.928;10.522;2022-11-14T06:51:34;101.93;;;41.63;;
20810;SDS011;10566;52.928;10.522;2022-11-14T06:54:00;103.73;;;41.00;;
20810;SDS011;10566;52.928;10.522;2022-11-14T06:56:26;87.77;;;35.07;;
20810;SDS011;10566;52.928;10.522;2022-11-14T06:58:52;92.27;;;38.80;;
20810;SDS011;10566;52.928;10.522;2022-11-14T07:01:19;88.40;;;38.83;;
20810;SDS011;10566;52.928;10.522;2022-11-14T07:03:46;84.47;;;36.90;;
20810;SDS011;10566;52.928;10.522;2022-11-14T07:06:13;88.37;;;38.37;;
20810;SDS011;10566;52.928;10.522;2022-11-14T07:08:40;83.03;;;36.03;;
20810;SDS011;10566;52.928;10.522;2022-11-14T07:11:09;88.50;;;37.40;;
20810;SDS011;10566;52.928;10.522;2022-11-14T07:13:36;87.17;;;38.77;;
20810;SDS011;10566;52.928;10.522;2022-11-14T07:16:03;85.53;;;38.50;;
20810;SDS011;10566;52.928;10.522;2022-11-14T07:18:30;84.40;;;36.93;;
20810;SDS011;10566;52.928;10.522;2022-11-14T07:21:00;79.67;;;35.80;;
20810;SDS011;10566;52.928;10.522;2022-11-14T07:23:27;82.63;;;37.97;;
20810;SDS011;10566;52.928;10.522;2022-11-14T07:25:53;81.57;;;38.83;;
20810;SDS011;10566;52.928;10.522;2022-11-14T07:28:20;79.80;;;35.63;;
20810;SDS011;10566;52.928;10.522;2022-11-14T07:30:46;84.63;;;37.83;;
20810;SDS011;10566;52.928;10.522;2022-11-14T07:33:12;78.03;;;35.60;;
20810;SDS011;10566;52.928;10.522;2022-11-14T07:35:38;82.53;;;36.70;;
20810;SDS011;10566;52.928;10.522;2022-11-14T07:38:04;86.20;;;37.73;;
20810;SDS011;10566;52.928;10.522;2022-11-14T07:40:30;79.77;;;38.57;;
20810;SDS011;10566;52.928;10.522;2022-11-14T07:43:00;81.90;;;38.73;;
20810;SDS011;10566;52.928;10.522;2022-11-14T07:45:27;79.17;;;35.10;;
20810;SDS011;10566;52.928;10.522;2022-11-14T07:47:56;79.97;;;34.70;;
20810;SDS011;10566;52.928;10.522;2022-11-14T07:50:23;75.43;;;36.40;;
20810;SDS011;10566;52.928;10.522;2022-11-14T07:52:50;73.53;;;36.20;;
20810;SDS011;10566;52.928;10.522;2022-11-14T07:55:16;76.87;;;36.17;;
20810;SDS011;10566;52.928;10.522;2022-11-14T07:57:43;74.63;;;35.93;;
20810;SDS011;10566;52.928;10.522;2022-11-14T08:00:09;76.20;;;34.77;;
20810;SDS011;10566;52.928;10.522;2022-11-14T08:02:35;70.80;;;32.40;;
20810;SDS011;10566;52.928;10.522;2022-11-14T08:05:01;70.47;;;33.70;;
20810;SDS011;10566;52.928;10.522;2022-11-14T08:07:27;72.70;;;34.67;;
20810;SDS011;10566;52.928;10.522;2022-11-14T08:09:53;75.13;;;35.33;;
20810;SDS011;10566;52.928;10.522;2022-11-14T08:12:19;75.53;;;36.33;;
20810;SDS011;10566;52.928;10.522;2022-11-14T08:14:45;68.27;;;34.50;;
20810;SDS011;10566;52.928;10.522;2022-11-14T08:17:11;73.30;;;35.00;;
20810;SDS011;10566;52.928;10.522;2022-11-14T08:19:37;69.90;;;34.27;;
20810;SDS011;10566;52.928;10.522;2022-11-14T08:22:05;71.87;;;34.87;;
20810;SDS011;10566;52.928;10.522;2022-11-14T08:24:31;68.80;;;34.63;;
20810;SDS011;10566;52.928;10.522;2022-11-14T08:26:57;74.57;;;36.17;;
20810;SDS011;10566;52.928;10.522;2022-11-14T08:29:23;69.90;;;34.77;;
20810;SDS011;10566;52.928;10.522;2022-11-14T08:31:49;72.80;;;36.50;;
20810;SDS011;10566;52.928;10.522;2022-11-14T08:34:15;75.67;;;36.87;;
20810;SDS011;10566;52.928;10.522;2022-11-14T08:36:41;65.67;;;33.03;;
20810;SDS011;10566;52.928;10.522;2022-11-14T08:39:07;71.07;;;33.73;;
20810;SDS011;10566;52.928;10.522;2022-11-14T08:41:33;69.80;;;32.53;;
20810;SDS011;10566;52.928;10.522;2022-11-14T08:43:59;75.53;;;36.50;;
20810;SDS011;10566;52.928;10.522;2022-11-14T08:46:25;76.53;;;37.90;;
20810;SDS011;10566;52.928;10.522;2022-11-14T08:48:51;65.30;;;33.53;;
20810;SDS011;10566;52.928;10.522;2022-11-14T08:51:17;69.57;;;34.70;;
20810;SDS011;10566;52.928;10.522;2022-11-14T08:53:43;73.30;;;35.07;;
20810;SDS011;10566;52.928;10.522;2022-11-14T08:56:10;71.50;;;34.23;;
20810;SDS011;10566;52.928;10.522;2022-11-14T08:58:36;65.07;;;33.43;;
20810;SDS011;10566;52.928;10.522;2022-11-14T09:01:02;68.23;;;33.67;;
20810;SDS011;10566;52.928;10.522;2022-11-14T09:03:29;73.00;;;37.43;;
20810;SDS011;10566;52.928;10.522;2022-11-14T09:05:55;63.33;;;33.07;;
20810;SDS011;10566;52.928;10.522;2022-11-14T09:08:22;66.40;;;32.83;;
20810;SDS011;10566;52.928;10.522;2022-11-14T09:10:48;64.43;;;33.13;;
20810;SDS011;10566;52.928;10.522;2022-11-14T09:13:14;63.77;;;31.20;;
20810;SDS011;10566;52.928;10.522;2022-11-14T09:15:40;61.23;;;31.33;;
20810;SDS011;10566;52.928;10.522;2022-11-14T09:18:07;66.13;;;32.60;;
20810;SDS011;10566;52.928;10.522;2022-11-14T09:20:33;61.47;;;33.23;;
20810;SDS011;10566;52.928;10.522;2022-11-14T09:22:59;60.70;;;30.67;;
20810;SDS011;10566;52.928;10.522;2022-11-14T09:25:26;58.93;;;30.70;;
20810;SDS011;10566;52.928;10.522;2022-11-14T09:27:53;56.57;;;31.03;;
20810;SDS011;10566;52.928;10.522;2022-11-14T09:30:19;62.63;;;33.87;;
20810;SDS011;10566;52.928;10.522;2022-11-14T09:32:46;57.07;;;30.93;;
20810;SDS011;10566;52.928;10.522;2022-11-14T09:35:12;62.20;;;33.17;;
20810;SDS011;10566;52.928;10.522;2022-11-14T09:37:39;56.43;;;29.03;;
20810;SDS011;10566;52.928;10.522;2022-11-14T09:40:05;60.47;;;33.47;;
20810;SDS011;10566;52.928;10.522;2022-11-14T09:45:04;59.33;;;34.30;;
20810;SDS011;10566;52.928;10.522;2022-11-14T09:47:47;63.73;;;33.60;;
20810;SDS011;10566;52.928;10.522;2022-11-14T09:50:15;59.23;;;30.57;;
20810;SDS011;10566;52.928;10.522;2022-11-14T09:52:43;57.93;;;30.57;;
20810;SDS011;10566;52.928;10.522;2022-11-14T09:55:27;58.50;;;30.87;;
20810;SDS011;10566;52.928;10.522;2022-11-14T09:57:54;60.77;;;30.83;;
20810;SDS011;10566;52.928;10.522;2022-11-14T10:00:24;56.00;;;30.47;;
20810;SDS011;10566;52.928;10.522;2022-11-14T10:05:38;53.00;;;27.33;;
20810;SDS011;10566;52.928;10.522;2022-11-14T10:10:53;53.30;;;29.13;;
20810;SDS011;10566;52.928;10.522;2022-11-14T10:18:48;52.70;;;28.70;;
20810;SDS011;10566;52.928;10.522;2022-11-14T10:21:32;49.33;;;26.07;;
20810;SDS011;10566;52.928;10.522;2022-11-14T10:27:01;50.40;;;26.50;;
20810;SDS011;10566;52.928;10.522;2022-11-14T10:30:02;52.63;;;28.60;;
20810;SDS011;10566;52.928;10.522;2022-11-14T10:37:36;49.13;;;28.27;;
20810;SDS011;10566;52.928;10.522;2022-11-14T10:43:00;48.30;;;27.97;;
20810;SDS011;10566;52.928;10.522;2022-11-14T10:45:28;48.67;;;27.10;;
20810;SDS011;10566;52.928;10.522;2022-11-14T10:48:00;46.27;;;26.63;;
20810;SDS011;10566;52.928;10.522;2022-11-14T10:50:40;48.33;;;26.63;;
20810;SDS011;10566;52.928;10.522;2022-11-14T10:53:13;49.50;;;27.30;;
20810;SDS011;10566;52.928;10.522;2022-11-14T10:55:40;47.97;;;26.93;;
20810;SDS011;10566;52.928;10.522;2022-11-14T10:58:10;46.67;;;27.77;;
20810;SDS011;10566;52.928;10.522;2022-11-14T11:00:37;46.70;;;27.50;;
20810;SDS011;10566;52.928;10.522;2022-11-14T11:03:03;45.47;;;26.40;;
20810;SDS011;10566;52.928;10.522;2022-11-14T11:05:29;47.10;;;25.87;;
20810;SDS011;10566;52.928;10.522;2022-11-14T11:07:57;49.23;;;26.80;;
20810;SDS011;10566;52.928;10.522;2022-11-14T11:10:44;50.33;;;28.43;;
20810;SDS011;10566;52.928;10.522;2022-11-14T11:14:02;50.47;;;27.73;;
20810;SDS011;10566;52.928;10.522;2022-11-14T11:16:22;47.47;;;27.47;;
20810;SDS011;10566;52.928;10.522;2022-11-14T11:18:48;51.50;;;28.07;;
20810;SDS011;10566;52.928;10.522;2022-11-14T11:21:16;53.07;;;31.17;;
20810;SDS011;10566;52.928;10.522;2022-11-14T11:23:52;51.20;;;29.70;;
20810;SDS011;10566;52.928;10.522;2022-11-14T11:29:01;51.27;;;28.77;;
20810;SDS011;10566;52.928;10.522;2022-11-14T11:31:28;54.67;;;27.93;;
20810;SDS011;10566;52.928;10.522;2022-11-14T11:34:11;51.70;;;28.50;;
20810;SDS011;10566;52.928;10.522;2022-11-14T11:36:38;52.60;;;29.47;;
20810;SDS011;10566;52.928;10.522;2022-11-14T11:39:07;48.33;;;28.00;;
20810;SDS011;10566;52.928;10.522;2022-11-14T11:41:35;51.67;;;28.20;;
20810;SDS011;10566;52.928;10.522;2022-11-14T11:44:02;47.03;;;27.23;;
20810;SDS011;10566;52.928;10.522;2022-11-14T11:46:33;46.67;;;26.57;;
20810;SDS011;10566;52.928;10.522;2022-11-14T11:49:46;49.13;;;27.73;;
20810;SDS011;10566;52.928;10.522;2022-11-14T11:51:53;53.00;;;27.80;;
20810;SDS011;10566;52.928;10.522;2022-11-14T11:54:21;46.13;;;26.90;;
20810;SDS011;10566;52.928;10.522;2022-11-14T11:56:50;48.77;;;26.90;;
20810;SDS011;10566;52.928;10.522;2022-11-14T11:59:20;47.63;;;27.10;;
20810;SDS011;10566;52.928;10.522;2022-11-14T12:01:49;45.17;;;25.77;;
20810;SDS011;10566;52.928;10.522;2022-11-14T12:04:16;47.13;;;26.27;;
20810;SDS011;10566;52.928;10.522;2022-11-14T12:06:45;44.07;;;26.13;;
20810;SDS011;10566;52.928;10.522;2022-11-14T12:09:21;45.00;;;25.57;;
20810;SDS011;10566;52.928;10.522;2022-11-14T12:11:49;42.77;;;26.63;;
20810;SDS011;10566;52.928;10.522;2022-11-14T12:28:25;43.40;;;25.47;;
20810;SDS011;10566;52.928;10.522;2022-11-14T12:30:49;42.17;;;24.83;;
20810;SDS011;10566;52.928;10.522;2022-11-14T12:35:56;46.57;;;24.97;;
20810;SDS011;10566;52.928;10.522;2022-11-14T12:38:22;40.73;;;24.60;;
20810;SDS011;10566;52.928;10.522;2022-11-14T12:40:55;43.20;;;24.80;;
20810;SDS011;10566;52.928;10.522;2022-11-14T12:50:47;36.83;;;22.80;;
20810;SDS011;10566;52.928;10.522;2022-11-14T13:11:50;32.67;;;19.57;;
20810;SDS011;10566;52.928;10.522;2022-11-14T13:14:48;31.10;;;19.50;;
20810;SDS011;10566;52.928;10.522;2022-11-14T13:17:34;32.23;;;19.93;;
20810;SDS011;10566;52.928;10.522;2022-11-14T13:20:22;32.60;;;21.07;;
20810;SDS011;10566;52.928;10.522;2022-11-14T13:31:19;32.87;;;19.83;;
20810;SDS011;10566;52.928;10.522;2022-11-14T13:33:52;32.87;;;19.80;;
20810;SDS011;10566;52.928;10.522;2022-11-14T13:36:37;29.90;;;19.53;;
20810;SDS011;10566;52.928;10.522;2022-11-14T13:49:30;29.37;;;18.90;;
20810;SDS011;10566;52.928;10.522;2022-11-14T13:51:59;31.57;;;20.10;;
20810;SDS011;10566;52.928;10.522;2022-11-14T13:54:25;29.83;;;18.33;;
20810;SDS011;10566;52.928;10.522;2022-11-14T13:57:07;28.53;;;18.47;;
20810;SDS011;10566;52.928;10.522;2022-11-14T14:15:21;32.17;;;19.90;;
20810;SDS011;10566;52.928;10.522;2022-11-14T14:28:37;30.60;;;19.37;;
20810;SDS011;10566;52.928;10.522;2022-11-14T14:33:39;32.47;;;20.23;;
20810;SDS011;10566;52.928;10.522;2022-11-14T14:36:19;29.93;;;19.30;;
20810;SDS011;10566;52.928;10.522;2022-11-14T14:38:46;32.33;;;20.80;;
20810;SDS011;10566;52.928;10.522;2022-11-14T14:41:12;30.70;;;20.63;;
20810;SDS011;10566;52.928;10.522;2022-11-14T14:43:39;31.50;;;20.60;;
20810;SDS011;10566;52.928;10.522;2022-11-14T14:46:06;31.93;;;21.17;;
20810;SDS011;10566;52.928;10.522;2022-11-14T14:48:33;31.77;;;20.27;;
20810;SDS011;10566;52.928;10.522;2022-11-14T14:51:00;32.63;;;20.53;;
20810;SDS011;10566;52.928;10.522;2022-11-14T14:53:29;31.83;;;20.90;;
20810;SDS011;10566;52.928;10.522;2022-11-14T14:56:06;33.63;;;21.80;;
20810;SDS011;10566;52.928;10.522;2022-11-14T14:58:41;34.73;;;22.27;;
20810;SDS011;10566;52.928;10.522;2022-11-14T15:01:11;35.33;;;22.87;;
20810;SDS011;10566;52.928;10.522;2022-11-14T15:03:38;35.17;;;22.43;;
20810;SDS011;10566;52.928;10.522;2022-11-14T15:06:17;34.73;;;22.23;;
20810;SDS011;10566;52.928;10.522;2022-11-14T15:08:45;34.60;;;22.27;;
20810;SDS011;10566;52.928;10.522;2022-11-14T15:11:12;31.90;;;20.33;;
20810;SDS011;10566;52.928;10.522;2022-11-14T15:13:39;35.73;;;22.43;;
20810;SDS011;10566;52.928;10.522;2022-11-14T15:16:06;36.53;;;23.80;;
20810;SDS011;10566;52.928;10.522;2022-11-14T15:18:32;39.13;;;23.20;;
20810;SDS011;10566;52.928;10.522;2022-11-14T15:23:35;30.60;;;20.27;;
20810;SDS011;10566;52.928;10.522;2022-11-14T15:26:02;32.83;;;20.70;;
20810;SDS011;10566;52.928;10.522;2022-11-14T15:28:28;31.50;;;19.40;;
20810;SDS011;10566;52.928;10.522;2022-11-14T15:30:58;32.90;;;20.97;;
20810;SDS011;10566;52.928;10.522;2022-11-14T15:33:32;32.87;;;20.80;;
20810;SDS011;10566;52.928;10.522;2022-11-14T15:36:11;30.90;;;20.30;;
20810;SDS011;10566;52.928;10.522;2022-11-14T15:38:37;31.53;;;20.63;;
20810;SDS011;10566;52.928;10.522;2022-11-14T15:41:20;34.93;;;22.23;;
20810;SDS011;10566;52.928;10.522;2022-11-14T15:43:47;35.20;;;22.03;;
20810;SDS011;10566;52.928;10.522;2022-11-14T15:49:00;34.40;;;21.20;;
20810;SDS011;10566;52.928;10.522;2022-11-14T15:51:45;35.30;;;22.40;;
20810;SDS011;10566;52.928;10.522;2022-11-14T15:54:31;36.33;;;20.83;;
20810;SDS011;10566;52.928;10.522;2022-11-14T15:56:58;34.73;;;21.47;;
20810;SDS011;10566;52.928;10.522;2022-11-14T15:59:25;35.30;;;21.60;;
20810;SDS011;10566;52.928;10.522;2022-11-14T16:02:02;33.70;;;21.43;;
20810;SDS011;10566;52.928;10.522;2022-11-14T16:04:30;35.13;;;22.50;;
20810;SDS011;10566;52.928;10.522;2022-11-14T16:06:57;36.77;;;23.57;;
20810;SDS011;10566;52.928;10.522;2022-11-14T16:09:23;42.30;;;25.53;;
20810;SDS011;10566;52.928;10.522;2022-11-14T16:11:49;43.93;;;26.23;;
20810;SDS011;10566;52.928;10.522;2022-11-14T16:14:15;47.13;;;25.57;;
20810;SDS011;10566;52.928;10.522;2022-11-14T16:16:41;44.53;;;26.67;;
20810;SDS011;10566;52.928;10.522;2022-11-14T16:19:09;46.60;;;27.77;;